sensor_id;sensor_type;location;lat;lon;timestamp;P1;durP1;ratioP1;P2;durP2;ratioP2
434;SDS011;204;48.942;9.256;2022-10-16T00:01:34;3.23;;;2.13;;
434;SDS011;204;48.942;9.256;2022-10-16T00:04:00;1.80;;;1.43;;
434;SDS011;204;48.942;9.256;2022-10-16T00:06:27;2.45;;;2.25;;
434;SDS011;204;48.942;9.256;2022-10-16T00:08:53;2.33;;;1.63;;
434;SDS011;204;48.942;9.256;2022-10-16T00:11:23;6.83;;;2.40;;
434;SDS011;204;48.942;9.256;2022-10-16T00:13:51;3.90;;;1.93;;
434;SDS011;204;48.942;9.256;2022-10-16T00:16:21;2.35;;;1.70;;
434;SDS011;204;48.942;9.256;2022-10-16T00:18:46;3.50;;;1.70;;
434;SDS011;204;48.942;9.256;2022-10-16T00:21:14;4.97;;;1.90;;
434;SDS011;204;48.942;9.256;2022-10-16T00:23:41;2.83;;;1.80;;
434;SDS011;204;48.942;9.256;2022-10-16T00:26:09;1.77;;;1.70;;
434;SDS011;204;48.942;9.256;2022-10-16T00:28:37;1.80;;;1.70;;
434;SDS011;204;48.942;9.256;2022-10-16T00:31:04;2.72;;;1.92;;
434;SDS011;204;48.942;9.256;2022-10-16T00:33:31;2.20;;;1.80;;
434;SDS011;204;48.942;9.256;2022-10-16T00:35:59;2.60;;;2.20;;
434;SDS011;204;48.942;9.256;2022-10-16T00:38:26;4.03;;;1.80;;
434;SDS011;204;48.942;9.256;2022-10-16T00:40:52;2.47;;;1.90;;
434;SDS011;204;48.942;9.256;2022-10-16T00:46:01;3.25;;;1.95;;
434;SDS011;204;48.942;9.256;2022-10-16T00:48:28;3.70;;;1.97;;
434;SDS011;204;48.942;9.256;2022-10-16T00:50:55;2.23;;;2.03;;
434;SDS011;204;48.942;9.256;2022-10-16T00:53:21;2.83;;;2.13;;
434;SDS011;204;48.942;9.256;2022-10-16T00:55:49;4.40;;;2.20;;
434;SDS011;204;48.942;9.256;2022-10-16T00:58:15;4.20;;;2.37;;
434;SDS011;204;48.942;9.256;2022-10-16T01:00:41;2.20;;;2.00;;
434;SDS011;204;48.942;9.256;2022-10-16T01:03:22;3.00;;;2.00;;
434;SDS011;204;48.942;9.256;2022-10-16T01:06:07;2.30;;;2.10;;
434;SDS011;204;48.942;9.256;2022-10-16T01:11:33;3.95;;;2.10;;
434;SDS011;204;48.942;9.256;2022-10-16T01:14:11;3.55;;;2.33;;
434;SDS011;204;48.942;9.256;2022-10-16T01:16:52;2.47;;;2.27;;
434;SDS011;204;48.942;9.256;2022-10-16T01:22:17;1.80;;;1.80;;
434;SDS011;204;48.942;9.256;2022-10-16T01:24:48;2.53;;;2.10;;
434;SDS011;204;48.942;9.256;2022-10-16T01:27:25;3.95;;;1.77;;
434;SDS011;204;48.942;9.256;2022-10-16T01:32:47;9.87;;;2.87;;
434;SDS011;204;48.942;9.256;2022-10-16T01:35:19;2.33;;;2.13;;
434;SDS011;204;48.942;9.256;2022-10-16T01:37:50;2.60;;;1.92;;
434;SDS011;204;48.942;9.256;2022-10-16T01:40:28;3.00;;;2.27;;
434;SDS011;204;48.942;9.256;2022-10-16T01:42:56;2.95;;;2.10;;
434;SDS011;204;48.942;9.256;2022-10-16T01:45:25;4.37;;;2.13;;
434;SDS011;204;48.942;9.256;2022-10-16T01:47:53;1.93;;;1.60;;
434;SDS011;204;48.942;9.256;2022-10-16T01:50:19;2.60;;;2.30;;
434;SDS011;204;48.942;9.256;2022-10-16T01:52:47;1.90;;;1.70;;
434;SDS011;204;48.942;9.256;2022-10-16T01:55:17;3.20;;;1.77;;
434;SDS011;204;48.942;9.256;2022-10-16T01:57:49;1.77;;;1.67;;
434;SDS011;204;48.942;9.256;2022-10-16T02:00:16;2.05;;;1.88;;
434;SDS011;204;48.942;9.256;2022-10-16T02:02:45;3.17;;;2.20;;
434;SDS011;204;48.942;9.256;2022-10-16T02:08:07;1.97;;;1.83;;
434;SDS011;204;48.942;9.256;2022-10-16T02:10:33;2.20;;;2.00;;
434;SDS011;204;48.942;9.256;2022-10-16T02:13:02;2.65;;;2.38;;
434;SDS011;204;48.942;9.256;2022-10-16T02:15:31;1.73;;;1.65;;
434;SDS011;204;48.942;9.256;2022-10-16T02:17:57;1.87;;;1.60;;
434;SDS011;204;48.942;9.256;2022-10-16T02:20:25;2.03;;;1.90;;
434;SDS011;204;48.942;9.256;2022-10-16T02:22:53;1.95;;;1.80;;
434;SDS011;204;48.942;9.256;2022-10-16T02:28:02;7.50;;;2.37;;
434;SDS011;204;48.942;9.256;2022-10-16T02:30:33;2.65;;;1.90;;
434;SDS011;204;48.942;9.256;2022-10-16T02:33:07;2.67;;;2.20;;
434;SDS011;204;48.942;9.256;2022-10-16T02:35:34;2.20;;;1.80;;
434;SDS011;204;48.942;9.256;2022-10-16T02:38:01;6.47;;;2.07;;
434;SDS011;204;48.942;9.256;2022-10-16T02:40:28;5.75;;;2.65;;
434;SDS011;204;48.942;9.256;2022-10-16T02:42:54;2.07;;;1.97;;
434;SDS011;204;48.942;9.256;2022-10-16T02:45:20;4.03;;;2.03;;
434;SDS011;204;48.942;9.256;2022-10-16T02:47:46;3.40;;;1.90;;
434;SDS011;204;48.942;9.256;2022-10-16T02:50:12;4.47;;;2.20;;
434;SDS011;204;48.942;9.256;2022-10-16T02:52:38;7.43;;;2.73;;
434;SDS011;204;48.942;9.256;2022-10-16T02:55:04;2.67;;;2.47;;
434;SDS011;204;48.942;9.256;2022-10-16T02:57:30;2.80;;;2.67;;
434;SDS011;204;48.942;9.256;2022-10-16T02:59:56;6.40;;;2.37;;
434;SDS011;204;48.942;9.256;2022-10-16T03:02:22;3.47;;;2.47;;
434;SDS011;204;48.942;9.256;2022-10-16T03:04:48;3.93;;;2.60;;
434;SDS011;204;48.942;9.256;2022-10-16T03:07:13;3.47;;;2.60;;
434;SDS011;204;48.942;9.256;2022-10-16T03:09:39;2.80;;;2.17;;
434;SDS011;204;48.942;9.256;2022-10-16T03:12:05;2.80;;;2.23;;
434;SDS011;204;48.942;9.256;2022-10-16T03:14:31;4.63;;;2.33;;
434;SDS011;204;48.942;9.256;2022-10-16T03:16:56;13.33;;;2.97;;
434;SDS011;204;48.942;9.256;2022-10-16T03:19:22;3.03;;;2.70;;
434;SDS011;204;48.942;9.256;2022-10-16T03:21:48;2.87;;;2.67;;
434;SDS011;204;48.942;9.256;2022-10-16T03:24:13;3.20;;;2.67;;
434;SDS011;204;48.942;9.256;2022-10-16T03:26:39;3.33;;;2.60;;
434;SDS011;204;48.942;9.256;2022-10-16T03:29:04;5.70;;;2.67;;
434;SDS011;204;48.942;9.256;2022-10-16T03:31:31;5.22;;;2.60;;
434;SDS011;204;48.942;9.256;2022-10-16T03:33:56;3.20;;;2.20;;
434;SDS011;204;48.942;9.256;2022-10-16T03:36:22;7.23;;;3.20;;
434;SDS011;204;48.942;9.256;2022-10-16T03:38:47;5.43;;;3.10;;
434;SDS011;204;48.942;9.256;2022-10-16T03:41:13;3.83;;;2.80;;
434;SDS011;204;48.942;9.256;2022-10-16T03:43:39;2.63;;;2.43;;
434;SDS011;204;48.942;9.256;2022-10-16T03:46:04;5.60;;;2.80;;
434;SDS011;204;48.942;9.256;2022-10-16T03:48:30;4.50;;;2.40;;
434;SDS011;204;48.942;9.256;2022-10-16T03:50:57;6.88;;;2.90;;
434;SDS011;204;48.942;9.256;2022-10-16T03:53:22;3.20;;;2.30;;
434;SDS011;204;48.942;9.256;2022-10-16T03:55:48;2.53;;;2.33;;
434;SDS011;204;48.942;9.256;2022-10-16T03:58:14;2.47;;;2.30;;
434;SDS011;204;48.942;9.256;2022-10-16T04:00:43;4.53;;;2.93;;
434;SDS011;204;48.942;9.256;2022-10-16T04:03:09;5.32;;;2.97;;
434;SDS011;204;48.942;9.256;2022-10-16T04:05:35;3.03;;;2.60;;
434;SDS011;204;48.942;9.256;2022-10-16T04:08:01;7.73;;;3.17;;
434;SDS011;204;48.942;9.256;2022-10-16T04:10:26;3.30;;;2.77;;
434;SDS011;204;48.942;9.256;2022-10-16T04:12:52;5.87;;;2.40;;
434;SDS011;204;48.942;9.256;2022-10-16T04:15:20;3.70;;;2.58;;
434;SDS011;204;48.942;9.256;2022-10-16T04:17:46;4.65;;;2.65;;
434;SDS011;204;48.942;9.256;2022-10-16T04:20:12;2.50;;;2.30;;
434;SDS011;204;48.942;9.256;2022-10-16T04:22:37;8.20;;;2.57;;
434;SDS011;204;48.942;9.256;2022-10-16T04:25:04;3.17;;;2.90;;
434;SDS011;204;48.942;9.256;2022-10-16T04:27:29;7.87;;;3.37;;
434;SDS011;204;48.942;9.256;2022-10-16T04:29:56;4.47;;;2.85;;
434;SDS011;204;48.942;9.256;2022-10-16T04:32:22;2.95;;;2.75;;
434;SDS011;204;48.942;9.256;2022-10-16T04:34:48;3.37;;;2.53;;
434;SDS011;204;48.942;9.256;2022-10-16T04:37:13;3.60;;;2.90;;
434;SDS011;204;48.942;9.256;2022-10-16T04:39:39;3.87;;;2.77;;
434;SDS011;204;48.942;9.256;2022-10-16T04:42:05;5.60;;;2.97;;
434;SDS011;204;48.942;9.256;2022-10-16T04:44:30;3.20;;;2.67;;
434;SDS011;204;48.942;9.256;2022-10-16T04:46:56;3.70;;;2.80;;
434;SDS011;204;48.942;9.256;2022-10-16T04:49:21;4.13;;;3.13;;
434;SDS011;204;48.942;9.256;2022-10-16T04:51:47;3.20;;;2.20;;
434;SDS011;204;48.942;9.256;2022-10-16T04:54:12;7.00;;;2.70;;
434;SDS011;204;48.942;9.256;2022-10-16T04:56:38;3.13;;;2.93;;
434;SDS011;204;48.942;9.256;2022-10-16T04:59:15;3.40;;;2.90;;
434;SDS011;204;48.942;9.256;2022-10-16T05:01:42;3.17;;;2.47;;
434;SDS011;204;48.942;9.256;2022-10-16T05:04:07;3.37;;;2.30;;
434;SDS011;204;48.942;9.256;2022-10-16T05:06:34;4.90;;;2.95;;
434;SDS011;204;48.942;9.256;2022-10-16T05:08:59;5.37;;;2.60;;
434;SDS011;204;48.942;9.256;2022-10-16T05:11:25;5.80;;;2.33;;
434;SDS011;204;48.942;9.256;2022-10-16T05:13:50;4.97;;;3.17;;
434;SDS011;204;48.942;9.256;2022-10-16T05:16:16;3.83;;;2.83;;
434;SDS011;204;48.942;9.256;2022-10-16T05:18:42;3.83;;;2.87;;
434;SDS011;204;48.942;9.256;2022-10-16T05:21:08;9.80;;;2.70;;
434;SDS011;204;48.942;9.256;2022-10-16T05:23:33;3.10;;;2.90;;
434;SDS011;204;48.942;9.256;2022-10-16T05:25:59;4.20;;;2.40;;
434;SDS011;204;48.942;9.256;2022-10-16T05:28:26;3.17;;;2.83;;
434;SDS011;204;48.942;9.256;2022-10-16T05:30:53;2.70;;;2.50;;
434;SDS011;204;48.942;9.256;2022-10-16T05:33:22;3.30;;;3.10;;
434;SDS011;204;48.942;9.256;2022-10-16T05:35:50;4.65;;;2.75;;
434;SDS011;204;48.942;9.256;2022-10-16T05:38:16;7.53;;;3.17;;
434;SDS011;204;48.942;9.256;2022-10-16T05:40:42;5.70;;;2.60;;
434;SDS011;204;48.942;9.256;2022-10-16T05:43:07;4.73;;;2.90;;
434;SDS011;204;48.942;9.256;2022-10-16T05:45:33;7.60;;;3.23;;
434;SDS011;204;48.942;9.256;2022-10-16T05:47:59;8.73;;;2.77;;
434;SDS011;204;48.942;9.256;2022-10-16T05:50:25;5.35;;;2.95;;
434;SDS011;204;48.942;9.256;2022-10-16T05:52:51;6.07;;;2.93;;
434;SDS011;204;48.942;9.256;2022-10-16T05:55:16;3.20;;;2.77;;
434;SDS011;204;48.942;9.256;2022-10-16T05:57:42;9.47;;;2.87;;
434;SDS011;204;48.942;9.256;2022-10-16T06:00:08;5.90;;;3.10;;
434;SDS011;204;48.942;9.256;2022-10-16T06:02:34;3.95;;;2.70;;
434;SDS011;204;48.942;9.256;2022-10-16T06:04:59;4.07;;;2.40;;
434;SDS011;204;48.942;9.256;2022-10-16T06:07:25;4.50;;;3.10;;
434;SDS011;204;48.942;9.256;2022-10-16T06:09:51;7.37;;;3.20;;
434;SDS011;204;48.942;9.256;2022-10-16T06:12:17;5.93;;;2.90;;
434;SDS011;204;48.942;9.256;2022-10-16T06:14:44;5.75;;;2.67;;
434;SDS011;204;48.942;9.256;2022-10-16T06:17:11;3.65;;;3.20;;
434;SDS011;204;48.942;9.256;2022-10-16T06:19:38;3.83;;;3.05;;
434;SDS011;204;48.942;9.256;2022-10-16T06:22:03;6.90;;;2.67;;
434;SDS011;204;48.942;9.256;2022-10-16T06:24:29;3.20;;;3.00;;
434;SDS011;204;48.942;9.256;2022-10-16T06:26:55;6.53;;;2.70;;
434;SDS011;204;48.942;9.256;2022-10-16T06:29:20;3.33;;;3.13;;
434;SDS011;204;48.942;9.256;2022-10-16T06:31:46;4.43;;;3.30;;
434;SDS011;204;48.942;9.256;2022-10-16T06:34:11;2.70;;;2.50;;
434;SDS011;204;48.942;9.256;2022-10-16T06:36:37;4.70;;;3.60;;
434;SDS011;204;48.942;9.256;2022-10-16T06:39:04;5.35;;;3.17;;
434;SDS011;204;48.942;9.256;2022-10-16T06:41:32;5.80;;;3.38;;
434;SDS011;204;48.942;9.256;2022-10-16T06:43:58;5.57;;;3.90;;
434;SDS011;204;48.942;9.256;2022-10-16T06:46:24;6.57;;;3.77;;
434;SDS011;204;48.942;9.256;2022-10-16T06:48:51;3.30;;;3.10;;
434;SDS011;204;48.942;9.256;2022-10-16T06:51:18;4.45;;;3.75;;
434;SDS011;204;48.942;9.256;2022-10-16T06:53:47;5.22;;;4.95;;
434;SDS011;204;48.942;9.256;2022-10-16T06:58:42;2.58;;;2.20;;
434;SDS011;204;48.942;9.256;2022-10-16T07:01:09;3.20;;;2.53;;
434;SDS011;204;48.942;9.256;2022-10-16T07:03:36;5.07;;;2.75;;
434;SDS011;204;48.942;9.256;2022-10-16T07:06:03;4.10;;;2.35;;
434;SDS011;204;48.942;9.256;2022-10-16T07:08:34;3.38;;;2.20;;
434;SDS011;204;48.942;9.256;2022-10-16T07:11:01;2.88;;;2.35;;
434;SDS011;204;48.942;9.256;2022-10-16T07:13:29;3.40;;;2.38;;
434;SDS011;204;48.942;9.256;2022-10-16T07:15:55;2.47;;;1.93;;
434;SDS011;204;48.942;9.256;2022-10-16T07:18:20;4.27;;;2.23;;
434;SDS011;204;48.942;9.256;2022-10-16T07:20:46;3.37;;;2.40;;
434;SDS011;204;48.942;9.256;2022-10-16T07:23:12;4.00;;;2.80;;
434;SDS011;204;48.942;9.256;2022-10-16T07:25:37;2.67;;;2.30;;
434;SDS011;204;48.942;9.256;2022-10-16T07:28:03;6.63;;;2.80;;
434;SDS011;204;48.942;9.256;2022-10-16T07:30:29;5.50;;;2.43;;
434;SDS011;204;48.942;9.256;2022-10-16T07:32:54;2.67;;;1.90;;
434;SDS011;204;48.942;9.256;2022-10-16T07:35:20;2.67;;;2.47;;
434;SDS011;204;48.942;9.256;2022-10-16T07:37:45;3.73;;;3.53;;
434;SDS011;204;48.942;9.256;2022-10-16T07:40:11;3.10;;;2.30;;
434;SDS011;204;48.942;9.256;2022-10-16T07:42:37;2.63;;;2.40;;
434;SDS011;204;48.942;9.256;2022-10-16T07:45:03;2.60;;;2.40;;
434;SDS011;204;48.942;9.256;2022-10-16T07:47:29;4.77;;;2.80;;
434;SDS011;204;48.942;9.256;2022-10-16T07:49:55;4.00;;;3.77;;
434;SDS011;204;48.942;9.256;2022-10-16T07:52:20;6.13;;;3.10;;
434;SDS011;204;48.942;9.256;2022-10-16T07:54:46;2.90;;;2.70;;
434;SDS011;204;48.942;9.256;2022-10-16T07:57:11;4.43;;;3.50;;
434;SDS011;204;48.942;9.256;2022-10-16T07:59:43;5.07;;;3.85;;
434;SDS011;204;48.942;9.256;2022-10-16T08:02:09;4.83;;;4.10;;
434;SDS011;204;48.942;9.256;2022-10-16T08:04:34;4.20;;;3.20;;
434;SDS011;204;48.942;9.256;2022-10-16T08:07:00;4.47;;;2.70;;
434;SDS011;204;48.942;9.256;2022-10-16T08:09:25;4.07;;;3.20;;
434;SDS011;204;48.942;9.256;2022-10-16T08:11:51;1.73;;;1.60;;
434;SDS011;204;48.942;9.256;2022-10-16T08:14:17;3.50;;;2.30;;
434;SDS011;204;48.942;9.256;2022-10-16T08:16:43;3.83;;;1.77;;
434;SDS011;204;48.942;9.256;2022-10-16T08:19:09;1.50;;;1.50;;
434;SDS011;204;48.942;9.256;2022-10-16T08:21:34;4.40;;;1.83;;
434;SDS011;204;48.942;9.256;2022-10-16T08:24:00;2.00;;;1.73;;
434;SDS011;204;48.942;9.256;2022-10-16T08:26:26;3.00;;;2.30;;
434;SDS011;204;48.942;9.256;2022-10-16T08:28:52;1.90;;;1.60;;
434;SDS011;204;48.942;9.256;2022-10-16T08:31:18;2.87;;;2.00;;
434;SDS011;204;48.942;9.256;2022-10-16T08:33:44;4.27;;;3.20;;
434;SDS011;204;48.942;9.256;2022-10-16T08:36:11;4.53;;;3.60;;
434;SDS011;204;48.942;9.256;2022-10-16T08:38:37;4.77;;;3.87;;
434;SDS011;204;48.942;9.256;2022-10-16T08:49:14;4.33;;;4.10;;
434;SDS011;204;48.942;9.256;2022-10-16T08:51:40;3.13;;;2.50;;
434;SDS011;204;48.942;9.256;2022-10-16T08:56:56;8.80;;;2.20;;
434;SDS011;204;48.942;9.256;2022-10-16T08:59:32;3.47;;;2.20;;
434;SDS011;204;48.942;9.256;2022-10-16T09:01:57;5.00;;;2.80;;
434;SDS011;204;48.942;9.256;2022-10-16T09:07:10;2.60;;;2.40;;
434;SDS011;204;48.942;9.256;2022-10-16T09:10:09;2.30;;;1.77;;
434;SDS011;204;48.942;9.256;2022-10-16T09:12:40;2.80;;;2.03;;
434;SDS011;204;48.942;9.256;2022-10-16T09:15:34;2.80;;;1.90;;
434;SDS011;204;48.942;9.256;2022-10-16T09:20:53;3.30;;;2.57;;
434;SDS011;204;48.942;9.256;2022-10-16T09:23:27;6.90;;;5.97;;
434;SDS011;204;48.942;9.256;2022-10-16T09:25:55;8.13;;;7.70;;
434;SDS011;204;48.942;9.256;2022-10-16T09:28:23;5.60;;;4.67;;
434;SDS011;204;48.942;9.256;2022-10-16T09:30:49;4.47;;;4.17;;
434;SDS011;204;48.942;9.256;2022-10-16T09:33:17;3.27;;;3.07;;
434;SDS011;204;48.942;9.256;2022-10-16T09:35:54;2.40;;;2.00;;
434;SDS011;204;48.942;9.256;2022-10-16T09:38:25;4.80;;;4.50;;
434;SDS011;204;48.942;9.256;2022-10-16T09:40:56;7.00;;;3.83;;
434;SDS011;204;48.942;9.256;2022-10-16T09:43:25;4.30;;;3.43;;
434;SDS011;204;48.942;9.256;2022-10-16T09:46:01;4.67;;;4.37;;
434;SDS011;204;48.942;9.256;2022-10-16T09:48:34;4.57;;;3.43;;
434;SDS011;204;48.942;9.256;2022-10-16T09:51:02;2.50;;;2.30;;
434;SDS011;204;48.942;9.256;2022-10-16T09:53:39;3.33;;;1.53;;
434;SDS011;204;48.942;9.256;2022-10-16T09:56:09;2.90;;;1.77;;
434;SDS011;204;48.942;9.256;2022-10-16T09:58:38;1.90;;;1.57;;
434;SDS011;204;48.942;9.256;2022-10-16T10:01:11;2.20;;;2.00;;
434;SDS011;204;48.942;9.256;2022-10-16T10:03:40;2.07;;;1.60;;
434;SDS011;204;48.942;9.256;2022-10-16T10:06:23;3.30;;;3.10;;
434;SDS011;204;48.942;9.256;2022-10-16T10:08:58;4.13;;;2.70;;
434;SDS011;204;48.942;9.256;2022-10-16T10:11:37;1.87;;;1.77;;
434;SDS011;204;48.942;9.256;2022-10-16T10:14:21;2.30;;;2.10;;
434;SDS011;204;48.942;9.256;2022-10-16T10:16:48;3.47;;;1.63;;
434;SDS011;204;48.942;9.256;2022-10-16T10:19:15;2.10;;;1.53;;
434;SDS011;204;48.942;9.256;2022-10-16T10:21:46;3.50;;;2.03;;
434;SDS011;204;48.942;9.256;2022-10-16T10:24:15;2.00;;;1.87;;
434;SDS011;204;48.942;9.256;2022-10-16T10:26:48;4.00;;;3.30;;
434;SDS011;204;48.942;9.256;2022-10-16T10:29:36;2.03;;;1.47;;
434;SDS011;204;48.942;9.256;2022-10-16T10:32:30;2.93;;;1.40;;
434;SDS011;204;48.942;9.256;2022-10-16T10:35:11;5.70;;;1.97;;
434;SDS011;204;48.942;9.256;2022-10-16T10:43:17;3.83;;;2.00;;
434;SDS011;204;48.942;9.256;2022-10-16T10:45:57;2.77;;;1.90;;
434;SDS011;204;48.942;9.256;2022-10-16T10:51:15;2.40;;;1.80;;
434;SDS011;204;48.942;9.256;2022-10-16T10:54:03;6.80;;;2.47;;
434;SDS011;204;48.942;9.256;2022-10-16T10:59:59;3.00;;;2.03;;
434;SDS011;204;48.942;9.256;2022-10-16T11:07:32;3.40;;;2.07;;
434;SDS011;204;48.942;9.256;2022-10-16T11:10:04;3.50;;;1.77;;
434;SDS011;204;48.942;9.256;2022-10-16T11:12:49;1.30;;;1.20;;
434;SDS011;204;48.942;9.256;2022-10-16T11:15:29;3.53;;;1.87;;
434;SDS011;204;48.942;9.256;2022-10-16T11:18:07;3.40;;;1.80;;
434;SDS011;204;48.942;9.256;2022-10-16T11:20:42;2.50;;;1.60;;
434;SDS011;204;48.942;9.256;2022-10-16T11:23:14;3.93;;;1.70;;
434;SDS011;204;48.942;9.256;2022-10-16T11:25:51;2.93;;;1.47;;
434;SDS011;204;48.942;9.256;2022-10-16T11:28:55;4.67;;;1.60;;
434;SDS011;204;48.942;9.256;2022-10-16T11:34:03;5.43;;;3.50;;
434;SDS011;204;48.942;9.256;2022-10-16T11:52:51;10.97;;;10.37;;
434;SDS011;204;48.942;9.256;2022-10-16T11:55:27;4.83;;;3.77;;
434;SDS011;204;48.942;9.256;2022-10-16T11:58:02;6.70;;;5.60;;
434;SDS011;204;48.942;9.256;2022-10-16T12:08:27;2.30;;;1.43;;
434;SDS011;204;48.942;9.256;2022-10-16T12:10:53;2.57;;;1.20;;
434;SDS011;204;48.942;9.256;2022-10-16T12:16:04;3.60;;;3.40;;
434;SDS011;204;48.942;9.256;2022-10-16T12:18:30;3.00;;;2.80;;
434;SDS011;204;48.942;9.256;2022-10-16T12:20:56;1.73;;;1.67;;
434;SDS011;204;48.942;9.256;2022-10-16T12:23:24;2.50;;;1.83;;
434;SDS011;204;48.942;9.256;2022-10-16T12:25:53;2.70;;;2.53;;
434;SDS011;204;48.942;9.256;2022-10-16T12:28:21;32.03;;;30.47;;
434;SDS011;204;48.942;9.256;2022-10-16T12:30:54;2.50;;;2.30;;
434;SDS011;204;48.942;9.256;2022-10-16T12:33:29;3.67;;;2.13;;
434;SDS011;204;48.942;9.256;2022-10-16T12:35:58;5.17;;;1.67;;
434;SDS011;204;48.942;9.256;2022-10-16T12:41:24;2.03;;;1.80;;
434;SDS011;204;48.942;9.256;2022-10-16T12:43:52;1.50;;;1.30;;
434;SDS011;204;48.942;9.256;2022-10-16T12:48:44;1.17;;;1.10;;
434;SDS011;204;48.942;9.256;2022-10-16T12:53:45;1.67;;;1.30;;
434;SDS011;204;48.942;9.256;2022-10-16T12:58:59;2.70;;;1.50;;
434;SDS011;204;48.942;9.256;2022-10-16T13:09:55;1.70;;;1.60;;
434;SDS011;204;48.942;9.256;2022-10-16T13:15:29;2.80;;;2.33;;
434;SDS011;204;48.942;9.256;2022-10-16T13:18:14;4.30;;;4.00;;
434;SDS011;204;48.942;9.256;2022-10-16T13:26:23;2.33;;;1.40;;
434;SDS011;204;48.942;9.256;2022-10-16T13:29:10;2.30;;;1.43;;
434;SDS011;204;48.942;9.256;2022-10-16T13:31:38;1.77;;;1.17;;
434;SDS011;204;48.942;9.256;2022-10-16T13:34:05;1.80;;;1.10;;
434;SDS011;204;48.942;9.256;2022-10-16T13:36:43;3.00;;;1.83;;
434;SDS011;204;48.942;9.256;2022-10-16T13:39:28;2.17;;;1.47;;
434;SDS011;204;48.942;9.256;2022-10-16T13:44:51;1.70;;;1.30;;
434;SDS011;204;48.942;9.256;2022-10-16T13:47:19;2.10;;;1.53;;
434;SDS011;204;48.942;9.256;2022-10-16T13:49:46;2.40;;;1.50;;
434;SDS011;204;48.942;9.256;2022-10-16T13:52:24;1.40;;;1.23;;
434;SDS011;204;48.942;9.256;2022-10-16T13:54:49;1.37;;;1.33;;
434;SDS011;204;48.942;9.256;2022-10-16T13:57:16;2.60;;;1.60;;
434;SDS011;204;48.942;9.256;2022-10-16T13:59:41;1.50;;;1.40;;
434;SDS011;204;48.942;9.256;2022-10-16T14:02:21;2.63;;;1.37;;
434;SDS011;204;48.942;9.256;2022-10-16T14:04:56;1.73;;;1.63;;
434;SDS011;204;48.942;9.256;2022-10-16T14:07:27;2.47;;;1.70;;
434;SDS011;204;48.942;9.256;2022-10-16T14:09:56;1.40;;;1.40;;
434;SDS011;204;48.942;9.256;2022-10-16T14:12:28;1.97;;;1.73;;
434;SDS011;204;48.942;9.256;2022-10-16T14:14:54;3.43;;;1.23;;
434;SDS011;204;48.942;9.256;2022-10-16T14:17:26;1.33;;;1.27;;
434;SDS011;204;48.942;9.256;2022-10-16T14:19:54;3.23;;;1.33;;
434;SDS011;204;48.942;9.256;2022-10-16T14:22:28;3.47;;;1.63;;
434;SDS011;204;48.942;9.256;2022-10-16T14:25:00;3.00;;;1.60;;
434;SDS011;204;48.942;9.256;2022-10-16T14:30:08;2.23;;;1.33;;
434;SDS011;204;48.942;9.256;2022-10-16T14:32:55;3.07;;;1.40;;
434;SDS011;204;48.942;9.256;2022-10-16T14:35:26;2.30;;;1.20;;
434;SDS011;204;48.942;9.256;2022-10-16T14:38:00;3.70;;;1.47;;
434;SDS011;204;48.942;9.256;2022-10-16T14:40:29;1.70;;;1.60;;
434;SDS011;204;48.942;9.256;2022-10-16T14:43:02;2.30;;;1.40;;
434;SDS011;204;48.942;9.256;2022-10-16T14:45:30;1.53;;;1.27;;
434;SDS011;204;48.942;9.256;2022-10-16T14:47:58;3.17;;;1.60;;
434;SDS011;204;48.942;9.256;2022-10-16T14:50:27;1.77;;;1.53;;
434;SDS011;204;48.942;9.256;2022-10-16T14:52:53;8.10;;;1.80;;
434;SDS011;204;48.942;9.256;2022-10-16T14:55:20;2.90;;;1.33;;
434;SDS011;204;48.942;9.256;2022-10-16T14:57:45;2.23;;;2.03;;
434;SDS011;204;48.942;9.256;2022-10-16T15:00:14;2.33;;;1.70;;
434;SDS011;204;48.942;9.256;2022-10-16T15:02:40;1.70;;;1.60;;
434;SDS011;204;48.942;9.256;2022-10-16T15:05:25;1.60;;;1.50;;
434;SDS011;204;48.942;9.256;2022-10-16T15:07:52;3.33;;;1.50;;
434;SDS011;204;48.942;9.256;2022-10-16T15:10:23;3.20;;;1.97;;
434;SDS011;204;48.942;9.256;2022-10-16T15:12:50;2.33;;;2.10;;
434;SDS011;204;48.942;9.256;2022-10-16T15:17:48;2.40;;;1.90;;
434;SDS011;204;48.942;9.256;2022-10-16T15:20:19;4.77;;;2.17;;
434;SDS011;204;48.942;9.256;2022-10-16T15:22:44;3.43;;;1.60;;
434;SDS011;204;48.942;9.256;2022-10-16T15:25:25;3.57;;;2.00;;
434;SDS011;204;48.942;9.256;2022-10-16T15:28:07;2.87;;;2.20;;
434;SDS011;204;48.942;9.256;2022-10-16T15:30:34;2.33;;;1.67;;
434;SDS011;204;48.942;9.256;2022-10-16T15:33:01;1.73;;;1.60;;
434;SDS011;204;48.942;9.256;2022-10-16T15:35:28;3.60;;;2.13;;
434;SDS011;204;48.942;9.256;2022-10-16T15:37:53;5.20;;;2.33;;
434;SDS011;204;48.942;9.256;2022-10-16T15:40:19;2.80;;;1.50;;
434;SDS011;204;48.942;9.256;2022-10-16T15:42:45;2.60;;;1.80;;
434;SDS011;204;48.942;9.256;2022-10-16T15:45:11;2.30;;;2.20;;
434;SDS011;204;48.942;9.256;2022-10-16T15:47:38;2.80;;;2.53;;
434;SDS011;204;48.942;9.256;2022-10-16T15:50:05;3.83;;;3.63;;
434;SDS011;204;48.942;9.256;2022-10-16T15:52:31;5.83;;;2.13;;
434;SDS011;204;48.942;9.256;2022-10-16T15:54:57;1.63;;;1.57;;
434;SDS011;204;48.942;9.256;2022-10-16T15:57:23;5.13;;;1.83;;
434;SDS011;204;48.942;9.256;2022-10-16T15:59:49;3.07;;;1.80;;
434;SDS011;204;48.942;9.256;2022-10-16T16:02:15;4.37;;;2.07;;
434;SDS011;204;48.942;9.256;2022-10-16T16:04:41;2.30;;;1.80;;
434;SDS011;204;48.942;9.256;2022-10-16T16:07:06;2.10;;;1.90;;
434;SDS011;204;48.942;9.256;2022-10-16T16:09:32;3.20;;;2.00;;
434;SDS011;204;48.942;9.256;2022-10-16T16:11:58;3.10;;;2.90;;
434;SDS011;204;48.942;9.256;2022-10-16T16:14:25;2.80;;;2.60;;
434;SDS011;204;48.942;9.256;2022-10-16T16:16:53;2.53;;;2.40;;
434;SDS011;204;48.942;9.256;2022-10-16T16:19:19;2.67;;;2.40;;
434;SDS011;204;48.942;9.256;2022-10-16T16:21:46;8.40;;;2.77;;
434;SDS011;204;48.942;9.256;2022-10-16T16:24:12;5.17;;;2.27;;
434;SDS011;204;48.942;9.256;2022-10-16T16:26:37;4.27;;;2.60;;
434;SDS011;204;48.942;9.256;2022-10-16T16:29:04;2.90;;;2.37;;
434;SDS011;204;48.942;9.256;2022-10-16T16:31:31;3.43;;;3.23;;
434;SDS011;204;48.942;9.256;2022-10-16T16:33:57;5.03;;;3.77;;
434;SDS011;204;48.942;9.256;2022-10-16T16:36:23;5.57;;;5.20;;
434;SDS011;204;48.942;9.256;2022-10-16T16:38:50;9.53;;;5.60;;
434;SDS011;204;48.942;9.256;2022-10-16T16:41:17;4.50;;;4.20;;
434;SDS011;204;48.942;9.256;2022-10-16T16:43:47;6.00;;;5.70;;
434;SDS011;204;48.942;9.256;2022-10-16T16:46:13;17.40;;;16.50;;
434;SDS011;204;48.942;9.256;2022-10-16T16:48:40;10.80;;;10.17;;
434;SDS011;204;48.942;9.256;2022-10-16T16:51:06;7.97;;;7.57;;
434;SDS011;204;48.942;9.256;2022-10-16T16:53:36;12.43;;;11.83;;
434;SDS011;204;48.942;9.256;2022-10-16T16:56:02;16.87;;;15.10;;
434;SDS011;204;48.942;9.256;2022-10-16T16:58:29;8.90;;;7.20;;
434;SDS011;204;48.942;9.256;2022-10-16T17:00:55;10.90;;;5.90;;
434;SDS011;204;48.942;9.256;2022-10-16T17:03:21;10.33;;;9.83;;
434;SDS011;204;48.942;9.256;2022-10-16T17:08:43;19.53;;;18.53;;
434;SDS011;204;48.942;9.256;2022-10-16T17:11:12;19.27;;;18.27;;
434;SDS011;204;48.942;9.256;2022-10-16T17:13:39;15.70;;;14.87;;
434;SDS011;204;48.942;9.256;2022-10-16T17:16:05;9.23;;;8.10;;
434;SDS011;204;48.942;9.256;2022-10-16T17:18:31;13.27;;;12.57;;
434;SDS011;204;48.942;9.256;2022-10-16T17:21:00;16.10;;;15.30;;
434;SDS011;204;48.942;9.256;2022-10-16T17:23:28;13.93;;;13.23;;
434;SDS011;204;48.942;9.256;2022-10-16T17:25:54;17.70;;;16.80;;
434;SDS011;204;48.942;9.256;2022-10-16T17:28:20;17.50;;;16.60;;
434;SDS011;204;48.942;9.256;2022-10-16T17:30:45;16.20;;;12.97;;
434;SDS011;204;48.942;9.256;2022-10-16T17:33:12;8.40;;;7.20;;
434;SDS011;204;48.942;9.256;2022-10-16T17:35:41;4.77;;;3.83;;
434;SDS011;204;48.942;9.256;2022-10-16T17:38:09;6.60;;;2.93;;
434;SDS011;204;48.942;9.256;2022-10-16T17:40:36;8.80;;;7.33;;
434;SDS011;204;48.942;9.256;2022-10-16T17:43:02;9.90;;;6.53;;
434;SDS011;204;48.942;9.256;2022-10-16T17:45:28;11.87;;;8.67;;
434;SDS011;204;48.942;9.256;2022-10-16T17:47:54;14.27;;;9.80;;
434;SDS011;204;48.942;9.256;2022-10-16T17:50:19;19.70;;;15.90;;
434;SDS011;204;48.942;9.256;2022-10-16T17:52:45;8.57;;;6.33;;
434;SDS011;204;48.942;9.256;2022-10-16T17:55:11;11.80;;;7.63;;